createdAt,value
2022-11-20T00:01:15.662Z,66.35
2022-11-20T00:03:19.606Z,65.83
2022-11-20T00:05:22.472Z,66.31
2022-11-20T00:07:38.554Z,66.66
2022-11-20T00:09:50.773Z,66.18
2022-11-20T00:11:52.619Z,66.67
2022-11-20T00:13:58.201Z,66.51
2022-11-20T00:16:19.865Z,66.14
2022-11-20T00:18:23.675Z,66.79
2022-11-20T00:20:29.723Z,66.88
2022-11-20T00:22:34.642Z,66.10
2022-11-20T00:24:41.664Z,66.89
2022-11-20T00:26:45.355Z,65.62
2022-11-20T00:29:01.486Z,66.39
2022-11-20T00:31:14.339Z,66.19
2022-11-20T00:33:16.172Z,65.80
2022-11-20T00:35:19.330Z,65.97
2022-11-20T00:37:21.254Z,65.80
2022-11-20T00:39:25.131Z,65.62
2022-11-20T00:41:35.042Z,66.01
2022-11-20T00:43:37.923Z,65.45
2022-11-20T00:45:39.736Z,65.32
2022-11-20T00:47:41.602Z,65.30
2022-11-20T00:49:43.536Z,65.42
2022-11-20T00:51:45.390Z,65.52
2022-11-20T00:53:47.769Z,66.01
2022-11-20T00:55:55.997Z,65.62
2022-11-20T00:57:57.780Z,65.80
2022-11-20T00:59:59.596Z,65.76
2022-11-20T01:02:01.396Z,65.96
2022-11-20T01:04:04.651Z,66.20
2022-11-20T01:06:13.551Z,65.67
2022-11-20T01:08:15.351Z,64.70
2022-11-20T01:10:18.538Z,65.06
2022-11-20T01:12:20.415Z,64.55
2022-11-20T01:14:25.246Z,64.73
2022-11-20T01:16:30.373Z,64.64
2022-11-20T01:18:34.028Z,64.28
2022-11-20T01:20:37.177Z,65.22
2022-11-20T01:22:40.448Z,65.09
2022-11-20T01:24:43.249Z,64.66
2022-11-20T01:26:46.481Z,64.67
2022-11-20T01:28:49.372Z,64.55
2022-11-20T01:30:51.229Z,65.27
2022-11-20T01:32:54.040Z,64.42
2022-11-20T01:34:55.880Z,65.08
2022-11-20T01:36:57.671Z,64.64
2022-11-20T01:39:02.236Z,65.00
2022-11-20T01:41:11.817Z,64.48
2022-11-20T01:43:23.733Z,65.19
2022-11-20T01:45:47.223Z,65.21
2022-11-20T01:47:50.871Z,65.24
2022-11-20T01:50:18.041Z,64.88
2022-11-20T01:52:43.901Z,65.29
2022-11-20T01:54:59.897Z,63.69
2022-11-20T01:57:03.057Z,64.18
2022-11-20T01:59:08.425Z,64.13
2022-11-20T02:01:12.769Z,64.27
2022-11-20T02:03:18.305Z,64.82
2022-11-20T02:05:23.213Z,65.03
2022-11-20T02:07:25.303Z,64.63
2022-11-20T02:09:27.778Z,64.93
2022-11-20T02:11:31.892Z,64.56
2022-11-20T02:13:46.971Z,64.29
2022-11-20T02:15:50.738Z,64.74
2022-11-20T02:17:58.512Z,64.92
2022-11-20T02:20:00.384Z,64.59
2022-11-20T02:22:13.101Z,64.63
2022-11-20T02:24:22.761Z,64.44
2022-11-20T02:26:28.625Z,64.63
2022-11-20T02:28:37.851Z,64.77
2022-11-20T02:30:39.873Z,64.88
2022-11-20T02:32:41.841Z,65.34
2022-11-20T02:34:49.912Z,65.28
2022-11-20T02:36:58.740Z,66.25
2022-11-20T02:39:00.741Z,66.12
2022-11-20T02:41:02.572Z,65.67
2022-11-20T02:43:04.369Z,65.43
2022-11-20T02:45:07.398Z,65.67
2022-11-20T02:47:19.334Z,66.07
2022-11-20T02:49:21.531Z,66.27
2022-11-20T02:51:25.070Z,66.27
2022-11-20T02:53:28.904Z,66.51
2022-11-20T02:55:40.250Z,66.31
2022-11-20T02:57:43.066Z,66.54
2022-11-20T02:59:44.915Z,65.59
2022-11-20T03:01:46.769Z,66.00
2022-11-20T03:04:13.557Z,66.24
2022-11-20T03:06:17.446Z,67.01
2022-11-20T03:08:19.293Z,66.77
2022-11-20T03:10:21.113Z,66.73
2022-11-20T03:12:22.928Z,66.21
2022-11-20T03:14:24.707Z,66.76
2022-11-20T03:16:33.698Z,67.26
2022-11-20T03:18:36.588Z,67.54
2022-11-20T03:20:38.446Z,68.37
2022-11-20T03:22:42.336Z,68.56
2022-11-20T03:24:50.290Z,68.66
2022-11-20T03:26:52.075Z,68.32
2022-11-20T03:28:58.736Z,68.87
2022-11-20T03:31:10.221Z,69.13
2022-11-20T03:33:12.019Z,69.47
2022-11-20T03:35:13.820Z,69.08
2022-11-20T03:37:16.705Z,69.56
2022-11-20T03:39:20.657Z,69.03
2022-11-20T03:41:37.023Z,69.98
2022-11-20T03:43:39.532Z,70.55
2022-11-20T03:45:41.405Z,69.74
2022-11-20T03:47:47.573Z,70.30
2022-11-20T03:49:51.213Z,70.37
2022-11-20T03:51:53.985Z,70.19
2022-11-20T03:53:59.246Z,70.58
2022-11-20T03:56:01.013Z,70.43
2022-11-20T03:58:02.942Z,71.28
2022-11-20T04:00:06.015Z,71.02
2022-11-20T04:02:07.894Z,71.12
2022-11-20T04:04:09.883Z,71.52
2022-11-20T04:06:18.620Z,71.14
2022-11-20T04:08:20.440Z,72.00
2022-11-20T04:10:28.526Z,72.45
2022-11-20T04:12:38.233Z,72.89
2022-11-20T04:14:40.268Z,72.23
2022-11-20T04:16:42.992Z,72.32
2022-11-20T04:18:45.253Z,71.85
2022-11-20T04:20:48.046Z,72.20
2022-11-20T04:22:49.932Z,72.87
2022-11-20T04:24:53.789Z,72.82
2022-11-20T04:26:55.701Z,73.07
2022-11-20T04:29:00.375Z,72.98
2022-11-20T04:31:12.984Z,72.55
2022-11-20T04:33:14.818Z,72.95
2022-11-20T04:35:16.669Z,73.64
2022-11-20T04:37:31.336Z,73.01
2022-11-20T04:39:34.197Z,73.22
2022-11-20T04:41:37.536Z,73.84
2022-11-20T04:43:41.347Z,73.14
2022-11-20T04:45:44.204Z,73.75
2022-11-20T04:47:52.048Z,73.77
2022-11-20T04:49:53.996Z,73.95
2022-11-20T04:51:55.882Z,74.22
2022-11-20T04:53:57.790Z,74.38
2022-11-20T04:56:08.946Z,74.39
2022-11-20T04:58:17.466Z,74.31
2022-11-20T05:00:21.472Z,74.49
2022-11-20T05:02:23.327Z,74.52
2022-11-20T05:04:28.746Z,73.92
2022-11-20T05:06:33.333Z,74.45
2022-11-20T05:08:35.667Z,73.79
2022-11-20T05:10:37.536Z,73.93
2022-11-20T05:12:39.374Z,74.07
2022-11-20T05:14:45.500Z,74.72
2022-11-20T05:16:47.368Z,74.58
2022-11-20T05:18:52.940Z,75.02
2022-11-20T05:20:58.922Z,75.02
2022-11-20T05:23:03.283Z,74.83
2022-11-20T05:25:15.237Z,74.81
2022-11-20T05:27:17.086Z,74.65
2022-11-20T05:29:19.103Z,74.80
2022-11-20T05:31:27.061Z,75.06
2022-11-20T05:33:31.037Z,74.96
2022-11-20T05:35:35.966Z,74.86
2022-11-20T05:37:37.787Z,74.42
2022-11-20T05:39:39.588Z,75.23
2022-11-20T05:41:47.296Z,75.16
2022-11-20T05:43:51.624Z,74.88
2022-11-20T05:45:57.443Z,75.54
2022-11-20T05:48:03.863Z,75.33
2022-11-20T05:50:06.163Z,75.37
2022-11-20T05:52:08.095Z,75.11
2022-11-20T05:54:17.034Z,75.18
2022-11-20T05:56:21.649Z,75.61
2022-11-20T05:58:23.546Z,75.82
2022-11-20T06:00:29.428Z,74.97
2022-11-20T06:02:31.265Z,75.67
2022-11-20T06:04:34.090Z,75.74
2022-11-20T06:06:37.008Z,75.70
2022-11-20T06:08:38.839Z,75.76
2022-11-20T06:10:40.650Z,75.70
2022-11-20T06:12:42.506Z,75.82
2022-11-20T06:14:44.418Z,76.44
2022-11-20T06:16:46.232Z,75.69
2022-11-20T06:18:48.571Z,76.11
2022-11-20T06:20:50.374Z,76.08
2022-11-20T06:22:52.285Z,76.04
2022-11-20T06:24:57.236Z,75.70
2022-11-20T06:26:59.036Z,75.65
2022-11-20T06:29:00.841Z,76.04
2022-11-20T06:31:03.190Z,76.22
2022-11-20T06:33:06.041Z,76.52
2022-11-20T06:35:08.325Z,76.17
2022-11-20T06:37:18.230Z,76.08
2022-11-20T06:39:20.378Z,76.10
2022-11-20T06:41:30.557Z,76.30
2022-11-20T06:43:37.662Z,75.88
2022-11-20T06:45:39.489Z,75.86
2022-11-20T06:47:42.387Z,75.97
2022-11-20T06:49:44.231Z,75.67
2022-11-20T06:51:49.196Z,76.08
2022-11-20T06:53:52.092Z,75.77
2022-11-20T06:55:57.938Z,75.72
2022-11-20T06:57:59.880Z,75.99
2022-11-20T07:00:01.846Z,75.97
2022-11-20T07:02:03.892Z,75.89
2022-11-20T07:04:06.873Z,76.33
2022-11-20T07:06:16.899Z,75.56
2022-11-20T07:08:18.712Z,75.35
2022-11-20T07:10:20.535Z,75.39
2022-11-20T07:12:22.419Z,75.40
2022-11-20T07:14:39.370Z,75.75
2022-11-20T07:16:41.273Z,74.90
2022-11-20T07:18:50.211Z,74.81
2022-11-20T07:20:56.579Z,74.10
2022-11-20T07:22:59.179Z,74.78
2022-11-20T07:25:01.024Z,74.42
2022-11-20T07:27:02.835Z,74.43
2022-11-20T07:29:04.782Z,73.71
2022-11-20T07:31:19.276Z,74.14
2022-11-20T07:33:21.695Z,73.29
2022-11-20T07:35:25.613Z,73.22
2022-11-20T07:37:35.789Z,72.91
2022-11-20T07:39:38.679Z,72.47
2022-11-20T07:41:40.612Z,72.14
2022-11-20T07:43:42.787Z,70.96
2022-11-20T07:45:44.639Z,70.49
2022-11-20T07:47:49.214Z,69.74
2022-11-20T07:49:51.057Z,70.40
2022-11-20T07:52:04.161Z,68.83
2022-11-20T07:54:11.802Z,67.81
2022-11-20T07:56:15.260Z,67.99
2022-11-20T07:58:24.226Z,66.73
2022-11-20T08:00:28.192Z,66.73
2022-11-20T08:02:42.294Z,66.74
2022-11-20T08:04:46.216Z,66.01
2022-11-20T08:06:49.075Z,64.91
2022-11-20T08:08:57.992Z,64.99
2022-11-20T08:11:18.433Z,64.37
2022-11-20T08:13:40.061Z,64.91
2022-11-20T08:15:43.108Z,63.41
2022-11-20T08:17:56.971Z,63.38
2022-11-20T08:20:08.465Z,61.75
2022-11-20T08:22:35.565Z,62.69
2022-11-20T08:24:44.235Z,63.55
2022-11-20T08:26:46.208Z,64.18
2022-11-20T08:28:49.070Z,64.29
2022-11-20T08:30:59.592Z,61.78
2022-11-20T08:33:19.879Z,60.99
2022-11-20T08:35:23.305Z,59.86
2022-11-20T08:37:42.629Z,59.58
2022-11-20T08:39:52.041Z,58.78
2022-11-20T08:41:59.869Z,58.41
2022-11-20T08:44:20.067Z,58.97
2022-11-20T08:46:27.993Z,59.15
2022-11-20T08:48:29.910Z,57.13
2022-11-20T08:50:33.636Z,57.55
2022-11-20T08:52:40.087Z,57.21
2022-11-20T08:54:50.750Z,57.23
2022-11-20T08:56:57.841Z,56.33
2022-11-20T08:59:31.594Z,55.71
2022-11-20T09:01:33.634Z,56.74
2022-11-20T09:03:36.526Z,56.79
2022-11-20T09:05:44.457Z,57.44
2022-11-20T09:07:47.311Z,57.30
2022-11-20T09:10:22.750Z,56.68
2022-11-20T09:12:30.603Z,57.05
2022-11-20T09:14:42.931Z,56.35
2022-11-20T09:16:47.604Z,57.47
2022-11-20T09:19:13.488Z,57.61
2022-11-20T09:21:24.123Z,57.04
2022-11-20T09:23:27.294Z,56.39
2022-11-20T09:25:35.076Z,56.58
2022-11-20T09:27:45.306Z,56.84
2022-11-20T09:29:55.250Z,56.54
2022-11-20T09:31:59.137Z,56.35
2022-11-20T09:34:00.967Z,56.61
2022-11-20T09:36:05.097Z,56.67
2022-11-20T09:38:10.151Z,56.54
2022-11-20T09:40:41.641Z,56.69
2022-11-20T09:43:25.008Z,57.01
2022-11-20T09:46:09.527Z,56.30
2022-11-20T09:48:49.801Z,56.25
2022-11-20T09:51:20.333Z,56.23
2022-11-20T09:53:56.408Z,56.42
2022-11-20T09:56:06.165Z,56.86
2022-11-20T09:58:22.537Z,57.25
2022-11-20T10:00:31.631Z,57.51
2022-11-20T10:02:43.218Z,57.58
2022-11-20T10:04:53.752Z,57.24
2022-11-20T10:07:38.284Z,57.12
2022-11-20T10:09:51.010Z,57.74
2022-11-20T10:12:11.288Z,57.45
2022-11-20T10:14:33.606Z,56.91
2022-11-20T10:17:05.150Z,56.98
2022-11-20T10:23:05.573Z,55.73
2022-11-20T10:25:19.667Z,56.33
2022-11-20T10:27:23.753Z,56.78
2022-11-20T10:29:40.840Z,54.87
2022-11-20T10:31:52.359Z,54.12
2022-11-20T10:34:49.760Z,55.05
2022-11-20T10:37:04.920Z,53.33
2022-11-20T10:39:37.272Z,54.05
2022-11-20T10:45:38.159Z,54.85
2022-11-20T10:47:53.110Z,55.01
2022-11-20T10:50:14.497Z,55.15
2022-11-20T10:52:58.601Z,55.02
2022-11-20T10:55:35.490Z,54.46
2022-11-20T10:58:09.250Z,54.11
2022-11-20T11:00:13.702Z,53.06
2022-11-20T11:02:20.565Z,53.43
2022-11-20T11:04:33.959Z,53.98
2022-11-20T11:06:48.485Z,53.39
2022-11-20T11:09:17.122Z,53.86
2022-11-20T11:11:32.258Z,54.09
2022-11-20T11:13:34.178Z,54.60
2022-11-20T11:15:42.378Z,54.13
2022-11-20T11:17:48.978Z,53.81
2022-11-20T11:20:05.324Z,53.59
2022-11-20T11:22:17.189Z,54.49
2022-11-20T11:24:44.694Z,54.83
2022-11-20T11:27:11.279Z,54.97
2022-11-20T11:29:30.590Z,55.31
2022-11-20T11:31:42.371Z,55.84
2022-11-20T11:33:50.039Z,54.55
2022-11-20T11:36:23.609Z,55.62
2022-11-20T11:38:46.053Z,55.49
2022-11-20T11:40:48.484Z,54.90
2022-11-20T11:42:55.876Z,55.32
2022-11-20T11:45:07.838Z,56.10
2022-11-20T11:47:25.764Z,56.91
2022-11-20T11:49:32.718Z,55.60
2022-11-20T11:51:52.539Z,55.85
2022-11-20T11:54:01.008Z,55.16
2022-11-20T11:56:18.130Z,55.50
2022-11-20T11:58:48.727Z,55.42
2022-11-20T12:01:30.493Z,56.03
2022-11-20T12:03:38.826Z,55.66
2022-11-20T12:05:46.207Z,56.09
2022-11-20T12:08:12.728Z,56.31
2022-11-20T12:10:49.689Z,56.32
2022-11-20T12:13:02.084Z,56.22
2022-11-20T12:15:26.752Z,56.42
2022-11-20T12:17:35.287Z,56.16
2022-11-20T12:19:41.263Z,56.47
2022-11-20T12:22:23.936Z,56.55
2022-11-20T12:24:41.895Z,56.26
2022-11-20T12:27:14.584Z,56.87
2022-11-20T12:29:38.394Z,57.06
2022-11-20T12:31:55.824Z,56.98
2022-11-20T12:34:20.437Z,57.00
2022-11-20T12:37:00.037Z,56.95
2022-11-20T12:39:42.686Z,56.76
2022-11-20T12:42:33.697Z,57.20
2022-11-20T12:45:03.805Z,56.19
2022-11-20T12:47:42.973Z,56.54
2022-11-20T12:50:10.936Z,56.63
2022-11-20T12:52:51.259Z,57.00
2022-11-20T12:55:35.124Z,57.29
2022-11-20T12:58:06.011Z,57.43
2022-11-20T13:00:09.043Z,57.20
2022-11-20T13:02:32.296Z,57.07
2022-11-20T13:04:38.304Z,56.76
2022-11-20T13:06:58.117Z,56.97
2022-11-20T13:09:12.636Z,57.17
2022-11-20T13:11:22.599Z,57.21
2022-11-20T13:13:58.046Z,57.42
2022-11-20T13:16:16.954Z,57.44
2022-11-20T13:18:19.843Z,57.06
2022-11-20T13:20:42.106Z,57.72
2022-11-20T13:23:07.237Z,57.67
2022-11-20T13:25:27.959Z,57.84
2022-11-20T13:27:32.572Z,58.25
2022-11-20T13:30:22.955Z,58.35
2022-11-20T13:32:26.345Z,58.15
2022-11-20T13:34:31.535Z,58.70
2022-11-20T13:36:54.555Z,58.39
2022-11-20T13:39:04.505Z,58.76
2022-11-20T13:41:28.289Z,59.14
2022-11-20T13:43:54.707Z,59.92
2022-11-20T13:46:06.197Z,59.83
2022-11-20T13:48:57.413Z,59.55
2022-11-20T13:51:32.529Z,59.22
2022-11-20T13:54:13.995Z,59.63
2022-11-20T13:56:51.664Z,59.96
2022-11-20T13:59:22.380Z,60.24
2022-11-20T14:01:47.422Z,59.99
2022-11-20T14:04:09.879Z,60.56
2022-11-20T14:06:30.117Z,60.36
2022-11-20T14:08:52.030Z,60.17
2022-11-20T14:11:13.978Z,60.13
2022-11-20T14:13:22.153Z,60.39
2022-11-20T14:15:33.335Z,60.24
2022-11-20T14:17:46.346Z,60.19
2022-11-20T14:19:54.527Z,60.74
2022-11-20T14:22:23.563Z,60.17
2022-11-20T14:24:40.190Z,60.53
2022-11-20T14:26:48.552Z,61.05
2022-11-20T14:28:53.875Z,60.36
2022-11-20T14:31:18.749Z,61.01
2022-11-20T14:33:46.746Z,60.98
2022-11-20T14:35:56.291Z,61.20
2022-11-20T14:38:01.521Z,60.82
2022-11-20T14:40:04.603Z,61.43
2022-11-20T14:42:23.647Z,61.53
2022-11-20T14:44:34.925Z,61.74
2022-11-20T14:46:38.309Z,62.12
2022-11-20T14:48:52.802Z,61.93
2022-11-20T14:50:59.526Z,61.98
2022-11-20T14:53:02.874Z,61.96
2022-11-20T14:55:12.851Z,62.39
2022-11-20T14:57:55.742Z,62.48
2022-11-20T15:00:17.860Z,62.77
2022-11-20T15:02:20.353Z,62.84
2022-11-20T15:04:51.016Z,63.01
2022-11-20T15:06:58.431Z,63.42
2022-11-20T15:09:15.821Z,63.19
2022-11-20T15:11:35.350Z,62.92
2022-11-20T15:13:45.022Z,63.22
2022-11-20T15:15:57.740Z,63.73
2022-11-20T15:18:00.893Z,63.68
2022-11-20T15:20:08.257Z,63.88
2022-11-20T15:22:14.978Z,64.00
2022-11-20T15:24:23.807Z,64.25
2022-11-20T15:26:33.336Z,65.03
2022-11-20T15:28:51.568Z,65.54
2022-11-20T15:30:56.898Z,66.37
2022-11-20T15:32:59.140Z,66.44
2022-11-20T15:35:03.328Z,66.99
2022-11-20T15:37:06.465Z,67.47
2022-11-20T15:39:30.424Z,67.67
2022-11-20T15:41:36.970Z,68.02
2022-11-20T15:43:42.361Z,68.75
2022-11-20T15:45:46.986Z,69.33
2022-11-20T15:47:50.145Z,69.49
2022-11-20T15:50:00.783Z,69.90
2022-11-20T15:52:03.919Z,69.76
2022-11-20T15:54:27.542Z,70.35
2022-11-20T15:56:36.213Z,70.68
2022-11-20T15:58:39.961Z,70.63
2022-11-20T16:00:42.943Z,70.57
2022-11-20T16:02:45.950Z,70.92
2022-11-20T16:04:55.839Z,70.98
2022-11-20T16:06:59.677Z,71.42
2022-11-20T16:09:05.139Z,71.39
2022-11-20T16:11:07.676Z,71.54
2022-11-20T16:13:35.047Z,71.52
2022-11-20T16:15:48.029Z,71.87
2022-11-20T16:17:51.850Z,71.57
2022-11-20T16:20:04.199Z,71.47
2022-11-20T16:22:07.603Z,71.51
2022-11-20T16:24:13.981Z,72.32
2022-11-20T16:26:33.229Z,71.65
2022-11-20T16:28:35.822Z,72.30
2022-11-20T16:30:56.919Z,72.27
2022-11-20T16:33:17.517Z,72.25
2022-11-20T16:35:21.159Z,72.61
2022-11-20T16:37:27.968Z,72.62
2022-11-20T16:39:32.351Z,72.85
2022-11-20T16:41:36.268Z,72.99
2022-11-20T16:43:38.797Z,72.64
2022-11-20T16:45:47.547Z,73.02
2022-11-20T16:48:01.053Z,73.03
2022-11-20T16:50:08.146Z,73.23
2022-11-20T16:52:35.800Z,73.09
2022-11-20T16:54:40.076Z,73.31
2022-11-20T16:56:54.044Z,73.29
2022-11-20T16:59:14.193Z,73.23
2022-11-20T17:01:22.365Z,73.46
2022-11-20T17:03:26.101Z,73.16
2022-11-20T17:05:44.011Z,73.51
2022-11-20T17:07:48.355Z,73.32
2022-11-20T17:09:51.153Z,73.52
2022-11-20T17:12:11.959Z,73.79
2022-11-20T17:14:14.683Z,73.50
2022-11-20T17:16:23.211Z,73.83
2022-11-20T17:18:28.334Z,74.21
2022-11-20T17:20:32.927Z,73.38
2022-11-20T17:22:35.917Z,73.43
2022-11-20T17:24:41.810Z,74.14
2022-11-20T17:26:50.641Z,74.31
2022-11-20T17:29:02.062Z,73.81
2022-11-20T17:31:18.378Z,74.05
2022-11-20T17:33:20.735Z,73.93
2022-11-20T17:35:23.289Z,74.27
2022-11-20T17:37:27.053Z,74.16
2022-11-20T17:39:41.872Z,74.09
2022-11-20T17:42:12.111Z,74.07
2022-11-20T17:44:15.858Z,74.11
2022-11-20T17:46:22.395Z,73.87
2022-11-20T17:48:31.039Z,74.29
2022-11-20T17:50:38.588Z,74.19
2022-11-20T17:52:44.540Z,74.37
2022-11-20T17:54:47.068Z,74.59
2022-11-20T17:57:15.502Z,74.59
2022-11-20T17:59:19.474Z,74.51
2022-11-20T18:01:31.820Z,75.16
2022-11-20T18:03:35.874Z,74.79
2022-11-20T18:05:39.059Z,74.93
2022-11-20T18:07:53.769Z,75.03
2022-11-20T18:10:06.237Z,74.79
2022-11-20T18:12:17.026Z,75.18
2022-11-20T18:14:37.289Z,75.09
2022-11-20T18:16:46.973Z,75.14
2022-11-20T18:18:50.627Z,74.71
2022-11-20T18:20:56.565Z,74.99
2022-11-20T18:23:01.045Z,74.69
2022-11-20T18:25:03.827Z,74.63
2022-11-20T18:27:09.263Z,75.16
2022-11-20T18:29:13.719Z,75.85
2022-11-20T18:31:18.029Z,75.69
2022-11-20T18:33:23.075Z,75.31
2022-11-20T18:35:30.484Z,75.65
2022-11-20T18:37:55.814Z,75.82
2022-11-20T18:40:08.476Z,75.84
2022-11-20T18:42:35.448Z,75.33
2022-11-20T18:44:55.834Z,75.59
2022-11-20T18:47:14.217Z,75.89
2022-11-20T18:49:19.280Z,75.62
2022-11-20T18:51:23.293Z,75.63
2022-11-20T18:53:27.796Z,75.68
2022-11-20T18:55:31.546Z,75.69
2022-11-20T18:57:34.814Z,75.25
2022-11-20T18:59:47.399Z,75.23
2022-11-20T19:01:53.498Z,76.05
2022-11-20T19:03:58.248Z,75.64
2022-11-20T19:06:16.440Z,75.46
2022-11-20T19:08:18.846Z,75.94
2022-11-20T19:10:27.538Z,75.40
2022-11-20T19:12:30.579Z,75.42
2022-11-20T19:14:35.205Z,75.57
2022-11-20T19:16:49.379Z,75.31
2022-11-20T19:18:54.170Z,75.38
2022-11-20T19:21:15.189Z,75.55
2022-11-20T19:23:23.748Z,75.56
2022-11-20T19:25:38.173Z,75.62
2022-11-20T19:27:41.597Z,75.37
2022-11-20T19:29:44.116Z,75.93
2022-11-20T19:31:46.606Z,76.17
2022-11-20T19:33:54.944Z,75.72
2022-11-20T19:36:00.255Z,76.33
2022-11-20T19:38:14.204Z,76.15
2022-11-20T19:40:23.801Z,75.79
2022-11-20T19:42:29.393Z,76.15
2022-11-20T19:44:34.706Z,76.28
2022-11-20T19:46:43.551Z,76.25
2022-11-20T19:48:46.645Z,75.89
2022-11-20T19:50:52.070Z,76.52
2022-11-20T19:52:58.887Z,75.82
2022-11-20T19:55:04.918Z,76.18
2022-11-20T19:57:07.741Z,76.51
2022-11-20T19:59:15.819Z,76.29
2022-11-20T20:01:27.600Z,76.50
2022-11-20T20:03:30.393Z,77.71
2022-11-20T20:05:36.597Z,77.88
2022-11-20T20:07:46.649Z,77.66
2022-11-20T20:09:51.107Z,78.58
2022-11-20T20:12:04.796Z,78.78
2022-11-20T20:14:15.475Z,78.23
2022-11-20T20:16:21.611Z,78.33
2022-11-20T20:18:24.202Z,78.57
2022-11-20T20:20:37.720Z,78.99
2022-11-20T20:22:49.090Z,78.50
2022-11-20T20:24:54.326Z,78.23
2022-11-20T20:26:58.273Z,78.07
2022-11-20T20:29:02.938Z,78.09
2022-11-20T20:31:15.649Z,78.38
2022-11-20T20:33:20.475Z,78.39
2022-11-20T20:35:23.388Z,78.14
2022-11-20T20:37:26.017Z,77.50
2022-11-20T20:39:31.376Z,77.83
2022-11-20T20:41:33.945Z,77.71
2022-11-20T20:43:57.513Z,76.79
2022-11-20T20:45:59.926Z,77.30
2022-11-20T20:48:02.287Z,77.00
2022-11-20T20:50:10.177Z,76.47
2022-11-20T20:52:16.718Z,77.17
2022-11-20T20:54:19.212Z,77.17
2022-11-20T20:56:21.772Z,76.83
2022-11-20T20:58:24.819Z,76.88
2022-11-20T21:00:27.333Z,76.69
2022-11-20T21:02:29.843Z,76.58
2022-11-20T21:04:42.413Z,76.67
2022-11-20T21:06:44.745Z,76.72
2022-11-20T21:08:49.970Z,76.91
2022-11-20T21:10:55.208Z,76.34
2022-11-20T21:12:57.226Z,75.99
2022-11-20T21:15:00.075Z,76.38
2022-11-20T21:17:03.393Z,76.19
2022-11-20T21:19:05.612Z,76.47
2022-11-20T21:21:28.090Z,76.13
2022-11-20T21:23:30.730Z,76.16
2022-11-20T21:25:37.673Z,76.67
2022-11-20T21:27:39.841Z,76.28
2022-11-20T21:29:42.718Z,76.73
2022-11-20T21:31:45.390Z,76.84
2022-11-20T21:33:48.946Z,76.75
2022-11-20T21:35:50.868Z,76.67
2022-11-20T21:37:52.989Z,76.78
2022-11-20T21:39:55.094Z,77.09
2022-11-20T21:42:00.176Z,76.72
2022-11-20T21:46:28.705Z,76.78
2022-11-20T21:48:33.286Z,76.88
2022-11-20T21:50:35.667Z,76.92
2022-11-20T21:52:38.184Z,76.98
2022-11-20T21:54:40.186Z,76.96
2022-11-20T21:56:43.428Z,77.16
2022-11-20T21:58:46.269Z,77.26
2022-11-20T22:00:48.457Z,77.47
2022-11-20T22:02:53.625Z,77.32
2022-11-20T22:04:56.749Z,77.14
2022-11-20T22:06:58.854Z,77.38
2022-11-20T22:09:03.123Z,77.25
2022-11-20T22:11:09.012Z,77.15
2022-11-20T22:13:29.721Z,77.09
2022-11-20T22:15:58.849Z,76.81
2022-11-20T22:18:13.949Z,77.11
2022-11-20T22:20:19.441Z,76.82
2022-11-20T22:22:22.450Z,77.20
2022-11-20T22:24:26.561Z,77.13
2022-11-20T22:26:40.160Z,77.02
2022-11-20T22:28:46.386Z,76.74
2022-11-20T22:30:49.429Z,77.21
2022-11-20T22:32:54.279Z,77.99
2022-11-20T22:34:56.159Z,77.23
2022-11-20T22:36:58.153Z,77.21
2022-11-20T22:39:02.627Z,77.23
2022-11-20T22:41:19.723Z,77.77
2022-11-20T22:43:21.602Z,77.37
2022-11-20T22:45:26.447Z,78.16
2022-11-20T22:47:28.277Z,77.73
2022-11-20T22:49:30.395Z,77.24
2022-11-20T22:51:39.997Z,77.02
2022-11-20T22:53:43.082Z,77.20
2022-11-20T22:55:49.552Z,77.84
2022-11-20T22:57:51.593Z,77.89
2022-11-20T22:59:53.432Z,78.17
2022-11-20T23:01:55.310Z,77.76
2022-11-20T23:03:59.602Z,77.89
2022-11-20T23:06:02.217Z,77.95
2022-11-20T23:08:04.550Z,77.75
2022-11-20T23:10:10.256Z,78.02
2022-11-20T23:12:12.092Z,78.13
2022-11-20T23:14:15.506Z,78.35
2022-11-20T23:16:20.120Z,78.23
2022-11-20T23:18:23.308Z,77.93
2022-11-20T23:20:25.143Z,78.48
2022-11-20T23:22:27.011Z,78.40
2022-11-20T23:24:29.266Z,78.41
2022-11-20T23:26:34.353Z,78.54
2022-11-20T23:28:36.639Z,78.65
2022-11-20T23:30:39.586Z,78.68
2022-11-20T23:32:43.491Z,78.93
2022-11-20T23:34:45.341Z,78.98
2022-11-20T23:36:47.281Z,78.28
2022-11-20T23:38:49.126Z,78.12
2022-11-20T23:40:52.480Z,78.05
2022-11-20T23:43:12.746Z,78.58
2022-11-20T23:45:14.725Z,78.18
2022-11-20T23:47:16.567Z,78.24
2022-11-20T23:49:18.620Z,78.11
2022-11-20T23:51:20.510Z,78.42
2022-11-20T23:53:23.401Z,78.33
2022-11-20T23:55:25.234Z,78.68
2022-11-20T23:57:27.135Z,78.07
2022-11-20T23:59:29.027Z,78.60
